EDLW METAR and TAF | Updated Today

EDLW METAR

Dortmund Airport

Observation time: 22 min. ago

EDLW 062050Z 17008KT CAVOK 08/05 Q1030

Need help? Read our tutorial on how to read METARs or read the parsed version below.

Dortmund Airport (EDLW) METAR

  • Weather conditions on Thu, 06 Oct 2022 20:50:00 +0000 (22 min. ago):
  • Present conditions: Dry
  • Clouds: Clear skies
  • Visibility: Greater than 10 km
  • Wind: 170 degrees at 8 knots
  • Temperature: 8 celsius
  • Dew point: 5 celsius
  • Pressure: 1030 millibars
  • Remarks: None


Useful to know...

EDLW TAF

Dortmund Airport

TAF EDLW 061700Z 0618/0718 19008KT CAVOK
Observation time: 4:12 hr. ago
Need help? Read our tutorial on how to read TAFs or read the parsed version below.

Parsed version of TAF for Dortmund Airport (EDLW)

  • From 06 October at 18:00 UTC, to day 07 of the month at 18:00 UTC
  • Visibility: Greater than 10 km
  • Wind: 190 degrees at 8